createdAt,value
2019-02-26T00:00:14.837Z,7.40
2019-02-26T00:01:19.166Z,7.37
2019-02-26T00:02:24.180Z,7.40
2019-02-26T00:03:30.865Z,7.37
2019-02-26T00:04:36.821Z,7.37
2019-02-26T00:05:40.207Z,7.35
2019-02-26T00:06:49.119Z,7.29
2019-02-26T00:07:53.012Z,7.24
2019-02-26T00:08:59.536Z,7.24
2019-02-26T00:10:04.522Z,7.23
2019-02-26T00:11:08.505Z,7.32
2019-02-26T00:12:13.260Z,7.23
2019-02-26T00:13:18.766Z,7.24
2019-02-26T00:14:24.999Z,7.31
2019-02-26T00:15:33.384Z,7.15
2019-02-26T00:16:37.661Z,7.22
2019-02-26T00:17:43.170Z,7.15
2019-02-26T00:18:46.296Z,7.19
2019-02-26T00:19:51.815Z,7.07
2019-02-26T00:20:59.042Z,7.16
2019-02-26T00:22:02.838Z,7.15
2019-02-26T00:23:08.347Z,7.13
2019-02-26T00:24:14.703Z,7.04
2019-02-26T00:25:20.415Z,7.04
2019-02-26T00:26:24.866Z,7.05
2019-02-26T00:27:31.308Z,7.07
2019-02-26T00:28:36.443Z,7.05
2019-02-26T00:29:41.388Z,7.04
2019-02-26T00:30:46.894Z,6.90
2019-02-26T00:31:53.012Z,6.98
2019-02-26T00:33:00.032Z,6.99
2019-02-26T00:34:03.416Z,7.01
2019-02-26T00:35:08.940Z,7.01
2019-02-26T00:36:15.395Z,6.89
2019-02-26T00:37:21.713Z,6.91
2019-02-26T00:38:25.448Z,6.84
2019-02-26T00:39:31.530Z,6.87
2019-02-26T00:40:37.151Z,6.79
2019-02-26T00:41:41.984Z,6.77
2019-02-26T00:42:50.258Z,6.79
2019-02-26T00:43:53.493Z,6.81
2019-02-26T00:45:00.950Z,6.86
2019-02-26T00:46:05.649Z,6.87
2019-02-26T00:47:09.543Z,6.87
2019-02-26T00:48:15.017Z,6.81
2019-02-26T00:49:21.599Z,6.81
2019-02-26T00:50:27.973Z,6.81
2019-02-26T00:51:31.549Z,6.77
2019-02-26T00:52:38.883Z,6.69
2019-02-26T00:53:42.558Z,6.72
2019-02-26T00:54:48.069Z,6.66
2019-02-26T00:55:54.285Z,6.61
2019-02-26T00:57:01.117Z,6.62
2019-02-26T00:58:05.989Z,6.61
2019-02-26T00:59:10.099Z,6.59
2019-02-26T01:00:15.610Z,6.51
2019-02-26T01:01:21.763Z,6.53
2019-02-26T01:02:26.621Z,6.56
2019-02-26T01:03:32.138Z,6.62
2019-02-26T01:04:39.061Z,6.58
2019-02-26T01:05:45.008Z,6.53
2019-02-26T01:06:48.647Z,6.53
2019-02-26T01:07:54.457Z,6.63
2019-02-26T01:09:01.950Z,6.62
2019-02-26T01:10:05.176Z,6.58
2019-02-26T01:11:10.684Z,6.47
2019-02-26T01:12:18.226Z,6.48
2019-02-26T01:13:22.520Z,6.56
2019-02-26T01:14:27.206Z,6.50
2019-02-26T01:15:32.719Z,6.47
2019-02-26T01:16:39.423Z,6.54
2019-02-26T01:17:43.726Z,6.50
2019-02-26T01:18:50.958Z,6.46
2019-02-26T01:19:56.387Z,6.51
2019-02-26T01:21:01.993Z,6.47
2019-02-26T01:22:05.753Z,6.48
2019-02-26T01:23:11.262Z,6.50
2019-02-26T01:24:16.769Z,6.59
2019-02-26T01:25:22.943Z,6.47
2019-02-26T01:26:27.919Z,6.46
2019-02-26T01:27:33.292Z,6.48
2019-02-26T01:28:39.645Z,6.44
2019-02-26T01:29:44.607Z,6.46
2019-02-26T01:30:53.678Z,6.35
2019-02-26T01:31:55.331Z,6.33
2019-02-26T01:33:03.230Z,6.47
2019-02-26T01:34:06.337Z,6.33
2019-02-26T01:35:12.930Z,6.44
2019-02-26T01:36:19.146Z,6.33
2019-02-26T01:37:22.866Z,6.38
2019-02-26T01:38:28.369Z,6.32
2019-02-26T01:39:35.659Z,6.33
2019-02-26T01:40:41.814Z,6.38
2019-02-26T01:41:46.064Z,6.43
2019-02-26T01:42:52.854Z,6.28
2019-02-26T01:43:55.913Z,6.33
2019-02-26T01:45:01.407Z,6.26
2019-02-26T01:46:07.833Z,6.25
2019-02-26T01:47:12.427Z,6.25
2019-02-26T01:48:18.600Z,6.19
2019-02-26T01:49:24.157Z,6.13
2019-02-26T01:50:30.872Z,6.16
2019-02-26T01:51:34.456Z,6.10
2019-02-26T01:52:39.974Z,6.18
2019-02-26T01:53:46.937Z,6.13
2019-02-26T01:54:51.286Z,6.16
2019-02-26T01:55:56.487Z,6.11
2019-02-26T01:57:01.994Z,6.14
2019-02-26T01:58:07.512Z,6.18
2019-02-26T01:59:13.011Z,6.18
2019-02-26T02:00:18.518Z,6.14
2019-02-26T02:01:26.090Z,6.04
2019-02-26T02:02:30.302Z,6.11
2019-02-26T02:03:35.036Z,6.16
2019-02-26T02:04:41.199Z,6.13
2019-02-26T02:05:47.953Z,6.13
2019-02-26T02:06:51.562Z,6.10
2019-02-26T02:07:57.070Z,6.06
2019-02-26T02:09:02.572Z,6.01
2019-02-26T02:10:08.087Z,6.10
2019-02-26T02:11:13.587Z,6.13
2019-02-26T02:12:19.105Z,6.09
2019-02-26T02:13:28.276Z,6.06
2019-02-26T02:14:30.112Z,6.13
2019-02-26T02:15:37.393Z,6.14
2019-02-26T02:16:41.127Z,6.21
2019-02-26T02:17:46.628Z,6.09
2019-02-26T02:18:53.574Z,6.18
2019-02-26T02:19:57.649Z,6.19
2019-02-26T02:21:03.147Z,6.16
2019-02-26T02:22:10.050Z,6.22
2019-02-26T02:23:14.167Z,6.18
2019-02-26T02:24:20.610Z,6.22
2019-02-26T02:25:28.986Z,6.22
2019-02-26T02:26:30.690Z,6.16
2019-02-26T02:27:36.201Z,6.19
2019-02-26T02:28:41.701Z,6.22
2019-02-26T02:29:48.836Z,6.29
2019-02-26T02:30:52.721Z,6.28
2019-02-26T02:31:59.431Z,6.18
2019-02-26T02:33:03.731Z,6.19
2019-02-26T02:34:09.242Z,6.16
2019-02-26T02:35:17.818Z,6.22
2019-02-26T02:36:22.905Z,6.18
2019-02-26T02:37:26.956Z,6.18
2019-02-26T02:38:31.277Z,6.14
2019-02-26T02:39:36.778Z,6.29
2019-02-26T02:40:43.156Z,6.16
2019-02-26T02:41:50.891Z,6.09
2019-02-26T02:42:53.305Z,6.06
2019-02-26T02:43:58.806Z,6.11
2019-02-26T02:45:05.162Z,6.09
2019-02-26T02:46:09.823Z,6.04
2019-02-26T02:47:15.330Z,6.09
2019-02-26T02:48:20.833Z,6.06
2019-02-26T02:49:26.338Z,5.98
2019-02-26T02:50:31.856Z,6.01
2019-02-26T02:51:39.490Z,6.03
2019-02-26T02:52:42.865Z,6.04
2019-02-26T02:53:50.515Z,5.89
2019-02-26T02:54:53.881Z,5.92
2019-02-26T02:55:59.383Z,5.86
2019-02-26T02:57:07.395Z,5.78
2019-02-26T02:58:13.066Z,5.81
2019-02-26T02:59:16.547Z,5.81
2019-02-26T03:00:23.913Z,5.88
2019-02-26T03:01:28.631Z,5.73
2019-02-26T03:02:37.448Z,5.75
2019-02-26T03:03:37.934Z,5.82
2019-02-26T03:04:43.449Z,5.77
2019-02-26T03:05:48.946Z,5.81
2019-02-26T03:06:55.597Z,5.73
2019-02-26T03:07:59.958Z,5.60
2019-02-26T03:09:06.871Z,5.63
2019-02-26T03:10:12.092Z,5.68
2019-02-26T03:11:16.481Z,5.66
2019-02-26T03:12:21.986Z,5.60
2019-02-26T03:13:28.041Z,5.56
2019-02-26T03:14:34.080Z,5.59
2019-02-26T03:15:38.509Z,5.57
2019-02-26T03:16:45.686Z,5.55
2019-02-26T03:17:49.521Z,5.53
2019-02-26T03:18:55.030Z,5.53
2019-02-26T03:20:02.739Z,5.48
2019-02-26T03:21:06.042Z,5.45
2019-02-26T03:22:12.852Z,5.49
2019-02-26T03:23:20.040Z,5.48
2019-02-26T03:24:25.354Z,5.57
2019-02-26T03:25:29.099Z,5.55
2019-02-26T03:26:33.574Z,5.59
2019-02-26T03:27:40.595Z,5.48
2019-02-26T03:28:48.019Z,5.55
2019-02-26T03:29:52.403Z,5.66
2019-02-26T03:30:55.615Z,5.66
2019-02-26T03:32:01.138Z,5.63
2019-02-26T03:33:06.620Z,5.57
2019-02-26T03:34:18.984Z,5.66
2019-02-26T03:35:19.687Z,5.67
2019-02-26T03:36:23.143Z,5.67
2019-02-26T03:37:29.353Z,5.68
2019-02-26T03:38:34.154Z,5.67
2019-02-26T03:39:39.655Z,5.66
2019-02-26T03:40:45.164Z,5.63
2019-02-26T03:41:51.567Z,5.71
2019-02-26T03:42:56.180Z,5.77
2019-02-26T03:44:03.295Z,5.59
2019-02-26T03:45:07.192Z,5.73
2019-02-26T03:46:12.700Z,5.64
2019-02-26T03:47:18.822Z,5.60
2019-02-26T03:48:23.724Z,5.71
2019-02-26T03:49:29.220Z,5.74
2019-02-26T03:50:34.726Z,5.59
2019-02-26T03:51:40.238Z,5.67
2019-02-26T03:52:45.759Z,5.64
2019-02-26T03:53:51.247Z,5.63
2019-02-26T03:54:56.752Z,5.67
2019-02-26T03:56:04.585Z,5.60
2019-02-26T03:57:09.005Z,5.59
2019-02-26T03:58:13.272Z,5.70
2019-02-26T03:59:18.779Z,5.60
2019-02-26T04:00:24.286Z,5.63
2019-02-26T04:01:29.795Z,5.49
2019-02-26T04:02:37.432Z,5.48
2019-02-26T04:03:42.501Z,5.60
2019-02-26T04:04:51.771Z,5.68
2019-02-26T04:05:51.825Z,5.75
2019-02-26T04:06:58.493Z,5.75
2019-02-26T04:08:04.496Z,5.82
2019-02-26T04:09:09.158Z,5.78
2019-02-26T04:10:13.929Z,5.88
2019-02-26T04:11:20.087Z,6.00
2019-02-26T04:12:24.860Z,6.13
2019-02-26T04:13:30.370Z,6.03
2019-02-26T04:14:35.874Z,6.04
2019-02-26T04:15:41.382Z,6.10
2019-02-26T04:16:46.898Z,6.09
2019-02-26T04:17:52.392Z,6.09
2019-02-26T04:18:57.904Z,6.16
2019-02-26T04:20:05.607Z,6.16
2019-02-26T04:21:11.763Z,6.26
2019-02-26T04:22:15.241Z,6.19
2019-02-26T04:23:21.896Z,6.11
2019-02-26T04:24:26.837Z,6.14
2019-02-26T04:25:33.336Z,6.19
2019-02-26T04:26:36.449Z,6.07
2019-02-26T04:27:44.052Z,6.13
2019-02-26T04:28:47.608Z,6.10
2019-02-26T04:29:52.969Z,6.01
2019-02-26T04:30:58.474Z,5.91
2019-02-26T04:32:03.982Z,5.96
2019-02-26T04:33:11.451Z,5.91
2019-02-26T04:34:15.004Z,5.91
2019-02-26T04:35:20.507Z,5.77
2019-02-26T04:36:26.041Z,5.78
2019-02-26T04:37:32.740Z,5.82
2019-02-26T04:38:37.022Z,5.71
2019-02-26T04:39:44.976Z,5.74
2019-02-26T04:40:48.038Z,5.66
2019-02-26T04:41:53.546Z,5.68
2019-02-26T04:42:59.440Z,5.67
2019-02-26T04:44:06.113Z,5.66
2019-02-26T04:45:10.066Z,5.73
2019-02-26T04:46:15.569Z,5.60
2019-02-26T04:47:21.941Z,5.73
2019-02-26T04:48:29.091Z,5.81
2019-02-26T04:49:33.985Z,5.68
2019-02-26T04:50:38.715Z,5.81
2019-02-26T04:51:45.045Z,5.75
2019-02-26T04:52:48.608Z,5.82
2019-02-26T04:53:56.053Z,5.75
2019-02-26T04:54:59.619Z,5.81
2019-02-26T04:56:06.349Z,5.82
2019-02-26T04:57:10.636Z,5.75
2019-02-26T04:58:18.397Z,5.67
2019-02-26T04:59:21.650Z,5.60
2019-02-26T05:00:29.925Z,5.55
2019-02-26T05:01:34.668Z,5.50
2019-02-26T05:02:38.164Z,5.52
2019-02-26T05:03:43.672Z,5.50
2019-02-26T05:04:49.190Z,5.46
2019-02-26T05:05:57.245Z,5.40
2019-02-26T05:07:04.390Z,5.48
2019-02-26T05:08:07.524Z,5.38
2019-02-26T05:09:11.205Z,5.35
2019-02-26T05:10:16.723Z,5.35
2019-02-26T05:11:31.381Z,5.31
2019-02-26T05:12:30.326Z,5.34
2019-02-26T05:13:34.622Z,5.32
2019-02-26T05:14:38.745Z,5.30
2019-02-26T05:15:44.246Z,5.22
2019-02-26T05:16:49.755Z,5.30
2019-02-26T05:17:55.258Z,5.34
2019-02-26T05:19:00.789Z,5.27
2019-02-26T05:20:09.241Z,5.34
2019-02-26T05:21:12.963Z,5.25
2019-02-26T05:22:19.442Z,5.32
2019-02-26T05:23:24.156Z,5.20
2019-02-26T05:24:28.295Z,5.22
2019-02-26T05:25:35.090Z,5.23
2019-02-26T05:26:39.317Z,5.20
2019-02-26T05:27:47.497Z,5.23
2019-02-26T05:28:51.513Z,5.17
2019-02-26T05:29:55.835Z,5.25
2019-02-26T05:31:03.451Z,5.23
2019-02-26T05:32:09.102Z,5.19
2019-02-26T05:33:12.354Z,5.22
2019-02-26T05:34:20.443Z,5.14
2019-02-26T05:35:25.246Z,5.13
2019-02-26T05:36:31.098Z,5.16
2019-02-26T05:37:35.353Z,5.09
2019-02-26T05:38:39.878Z,5.09
2019-02-26T05:39:46.826Z,5.07
2019-02-26T05:40:53.187Z,5.19
2019-02-26T05:41:58.941Z,5.05
2019-02-26T05:43:04.153Z,5.10
2019-02-26T05:44:10.297Z,5.10
2019-02-26T05:45:12.920Z,5.14
2019-02-26T05:46:19.497Z,5.12
2019-02-26T05:47:24.674Z,5.02
2019-02-26T05:48:29.442Z,4.99
2019-02-26T05:49:37.748Z,5.10
2019-02-26T05:50:42.007Z,5.02
2019-02-26T05:51:45.951Z,4.99
2019-02-26T05:52:57.566Z,4.86
2019-02-26T05:54:01.722Z,4.89
2019-02-26T05:55:02.482Z,4.94
2019-02-26T05:56:08.856Z,4.92
2019-02-26T05:57:25.955Z,4.94
2019-02-26T05:58:21.414Z,4.96
2019-02-26T05:59:24.501Z,4.89
2019-02-26T06:00:33.072Z,4.80
2019-02-26T06:01:35.512Z,4.89
2019-02-26T06:02:44.271Z,4.80
2019-02-26T06:03:48.709Z,4.84
2019-02-26T06:04:52.049Z,4.84
2019-02-26T06:05:58.340Z,4.75
2019-02-26T06:07:04.747Z,4.73
2019-02-26T06:08:08.551Z,4.76
2019-02-26T06:09:14.062Z,4.79
2019-02-26T06:10:21.559Z,4.80
2019-02-26T06:11:28.354Z,4.70
2019-02-26T06:12:32.738Z,4.69
2019-02-26T06:13:38.234Z,4.75
2019-02-26T06:14:41.591Z,4.76
2019-02-26T06:15:47.114Z,4.77
2019-02-26T06:16:53.768Z,4.83
2019-02-26T06:17:58.107Z,4.80
2019-02-26T06:19:03.616Z,4.83
2019-02-26T06:20:11.063Z,4.72
2019-02-26T06:21:16.645Z,4.80
2019-02-26T06:22:21.316Z,4.80
2019-02-26T06:23:28.059Z,4.76
2019-02-26T06:24:33.240Z,4.77
2019-02-26T06:25:36.656Z,4.73
2019-02-26T06:26:43.123Z,4.76
2019-02-26T06:27:47.665Z,4.70
2019-02-26T06:28:53.166Z,4.69
2019-02-26T06:30:00.754Z,4.72
2019-02-26T06:31:04.177Z,4.75
2019-02-26T06:32:11.888Z,4.70
2019-02-26T06:33:16.367Z,4.76
2019-02-26T06:34:21.408Z,4.76
2019-02-26T06:35:26.208Z,4.77
2019-02-26T06:36:31.707Z,4.80
2019-02-26T06:37:37.766Z,4.76
2019-02-26T06:38:42.728Z,4.77
2019-02-26T06:39:50.577Z,4.73
2019-02-26T06:40:53.745Z,4.76
2019-02-26T06:41:59.245Z,4.77
2019-02-26T06:43:04.748Z,4.79
2019-02-26T06:44:10.260Z,4.70
2019-02-26T06:45:16.803Z,4.73
2019-02-26T06:46:21.270Z,4.69
2019-02-26T06:47:29.255Z,4.70
2019-02-26T06:48:32.414Z,4.73
2019-02-26T06:49:37.782Z,4.72
2019-02-26T06:50:43.554Z,4.72
2019-02-26T06:51:49.812Z,4.69
2019-02-26T06:52:54.308Z,4.72
2019-02-26T06:54:01.098Z,4.73
2019-02-26T06:55:07.690Z,4.73
2019-02-26T06:56:10.821Z,4.79
2019-02-26T06:57:16.327Z,4.80
2019-02-26T06:58:21.839Z,4.75
2019-02-26T06:59:29.374Z,4.91
2019-02-26T07:00:32.870Z,4.86
2019-02-26T07:01:39.634Z,4.89
2019-02-26T07:02:46.205Z,4.89
2019-02-26T07:03:49.362Z,4.84
2019-02-26T07:04:54.870Z,4.94
2019-02-26T07:06:04.113Z,4.91
2019-02-26T07:07:07.644Z,4.95
2019-02-26T07:08:11.388Z,4.99
2019-02-26T07:09:18.219Z,4.99
2019-02-26T07:10:26.022Z,4.96
2019-02-26T07:11:28.646Z,4.99
2019-02-26T07:12:33.408Z,5.10
2019-02-26T07:13:41.031Z,5.07
2019-02-26T07:14:45.993Z,5.13
2019-02-26T07:15:49.942Z,5.01
2019-02-26T07:16:56.557Z,5.09
2019-02-26T07:18:04.475Z,5.14
2019-02-26T07:19:07.059Z,5.16
2019-02-26T07:20:11.954Z,5.23
2019-02-26T07:21:17.457Z,5.30
2019-02-26T07:22:22.969Z,5.27
2019-02-26T07:23:29.782Z,5.25
2019-02-26T07:24:33.978Z,5.25
2019-02-26T07:25:42.159Z,5.30
2019-02-26T07:26:46.374Z,5.31
2019-02-26T07:27:51.390Z,5.40
2019-02-26T07:28:56.005Z,5.38
2019-02-26T07:30:01.506Z,5.50
2019-02-26T07:31:08.116Z,5.50
2019-02-26T07:32:14.597Z,5.53
2019-02-26T07:33:18.029Z,5.56
2019-02-26T07:34:25.075Z,5.53
2019-02-26T07:35:30.586Z,5.66
2019-02-26T07:36:34.551Z,5.64
2019-02-26T07:37:40.361Z,5.66
2019-02-26T07:38:48.521Z,5.77
2019-02-26T07:39:51.546Z,5.85
2019-02-26T07:40:58.907Z,5.82
2019-02-26T07:42:02.079Z,5.96
2019-02-26T07:43:11.591Z,6.11
2019-02-26T07:44:15.547Z,6.10
2019-02-26T07:45:21.872Z,6.03
2019-02-26T07:46:24.111Z,6.22
2019-02-26T07:47:31.455Z,6.25
2019-02-26T07:48:35.114Z,6.28
2019-02-26T07:49:40.624Z,6.30
2019-02-26T07:50:48.263Z,6.38
2019-02-26T07:51:51.640Z,6.54
2019-02-26T07:52:59.256Z,6.56
2019-02-26T07:54:02.654Z,6.53
2019-02-26T07:55:09.052Z,6.50
2019-02-26T07:56:13.668Z,6.63
2019-02-26T07:57:20.723Z,6.61
2019-02-26T07:58:24.689Z,6.71
2019-02-26T07:59:32.386Z,6.71
2019-02-26T08:00:37.741Z,6.83
2019-02-26T08:01:43.065Z,6.87
2019-02-26T08:02:46.709Z,6.95
2019-02-26T08:03:53.255Z,6.89
2019-02-26T08:04:57.726Z,6.90
2019-02-26T08:06:06.510Z,7.07
2019-02-26T08:07:08.755Z,7.15
2019-02-26T08:08:14.815Z,7.23
2019-02-26T08:09:21.837Z,7.29
2019-02-26T08:10:25.263Z,7.38
2019-02-26T08:11:30.766Z,7.42
2019-02-26T08:12:38.069Z,7.44
2019-02-26T08:13:41.781Z,7.55
2019-02-26T08:14:47.764Z,7.62
2019-02-26T08:15:54.981Z,7.63
2019-02-26T08:16:59.405Z,7.69
2019-02-26T08:18:05.334Z,7.81
2019-02-26T08:19:09.330Z,7.79
2019-02-26T08:20:15.106Z,7.93
2019-02-26T08:21:22.275Z,7.96
2019-02-26T08:22:27.516Z,8.10
2019-02-26T08:23:31.353Z,8.20
2019-02-26T08:24:36.885Z,8.18
2019-02-26T08:25:42.370Z,8.17
2019-02-26T08:26:49.674Z,8.33
2019-02-26T08:27:53.958Z,8.42
2019-02-26T08:29:00.260Z,8.42
2019-02-26T08:30:04.404Z,8.50
2019-02-26T08:31:13.317Z,8.55
2019-02-26T08:32:18.137Z,8.66
2019-02-26T08:33:20.931Z,8.66
2019-02-26T08:34:26.439Z,8.78
2019-02-26T08:35:31.938Z,8.86
2019-02-26T08:36:37.450Z,8.94
2019-02-26T08:37:42.959Z,9.04
2019-02-26T08:38:48.463Z,9.06
2019-02-26T08:39:54.933Z,9.15
2019-02-26T08:40:59.483Z,9.20
2019-02-26T08:42:04.992Z,9.30
2019-02-26T08:43:10.502Z,9.35
2019-02-26T08:44:16.008Z,9.42
2019-02-26T08:45:23.585Z,9.53
2019-02-26T08:46:27.026Z,9.57
2019-02-26T08:47:32.540Z,9.52
2019-02-26T08:48:39.459Z,9.67
2019-02-26T08:49:45.635Z,9.76
2019-02-26T08:50:49.062Z,9.83
2019-02-26T08:51:54.574Z,9.91
2019-02-26T08:53:00.079Z,9.94
2019-02-26T08:54:05.588Z,10.09
2019-02-26T08:55:12.905Z,10.09
2019-02-26T08:56:18.629Z,10.07
2019-02-26T08:57:22.116Z,10.26
2019-02-26T08:58:28.265Z,10.30
2019-02-26T08:59:33.134Z,10.39
2019-02-26T09:00:38.644Z,10.46
2019-02-26T09:01:44.167Z,10.62
2019-02-26T09:02:53.824Z,10.65
2019-02-26T09:03:55.839Z,10.66
2019-02-26T09:05:01.573Z,10.73
2019-02-26T09:06:13.112Z,10.83
2019-02-26T09:07:11.708Z,10.91
2019-02-26T09:08:18.190Z,11.03
2019-02-26T09:09:23.521Z,10.98
2019-02-26T09:10:28.232Z,11.03
2019-02-26T09:11:33.894Z,11.03
2019-02-26T09:12:41.253Z,11.29
2019-02-26T09:13:44.770Z,11.27
2019-02-26T09:14:50.270Z,11.39
2019-02-26T09:15:58.177Z,11.34
2019-02-26T09:17:02.146Z,11.49
2019-02-26T09:18:06.799Z,11.54
2019-02-26T09:19:12.306Z,11.70
2019-02-26T09:20:17.827Z,11.72
2019-02-26T09:21:23.331Z,11.83
2019-02-26T09:22:28.854Z,11.87
2019-02-26T09:23:34.353Z,11.93
2019-02-26T09:24:39.861Z,11.99
2019-02-26T09:25:46.468Z,12.13
2019-02-26T09:26:52.084Z,12.20
2019-02-26T09:27:56.395Z,12.24
2019-02-26T09:29:01.906Z,12.26
2019-02-26T09:30:10.479Z,12.31
2019-02-26T09:31:14.209Z,12.44
2019-02-26T09:32:18.435Z,12.49
2019-02-26T09:33:25.052Z,12.57
2019-02-26T09:34:31.777Z,12.60
2019-02-26T09:35:34.972Z,12.69
2019-02-26T09:36:40.480Z,12.77
2019-02-26T09:37:47.886Z,12.95
2019-02-26T09:38:51.551Z,13.02
2019-02-26T09:39:59.128Z,13.02
2019-02-26T09:41:02.530Z,13.11
2019-02-26T09:42:09.200Z,13.15
2019-02-26T09:43:15.555Z,13.24
2019-02-26T09:44:19.057Z,13.30
2019-02-26T09:45:26.909Z,13.29
2019-02-26T09:46:31.735Z,13.32
2019-02-26T09:47:35.589Z,13.36
2019-02-26T09:48:43.344Z,13.52
2019-02-26T09:49:47.826Z,13.58
2019-02-26T09:50:52.122Z,13.58
2019-02-26T09:51:59.061Z,13.73
2019-02-26T09:53:03.143Z,13.73
2019-02-26T09:54:10.893Z,13.84
2019-02-26T09:55:14.169Z,13.84
2019-02-26T09:56:19.682Z,13.99
2019-02-26T09:57:26.348Z,13.98
2019-02-26T09:58:30.707Z,14.07
2019-02-26T09:59:38.382Z,14.01
2019-02-26T10:00:43.132Z,14.04
2019-02-26T10:01:47.239Z,14.21
2019-02-26T10:02:52.746Z,14.20
2019-02-26T10:03:58.360Z,14.25
2019-02-26T10:05:03.778Z,14.32
2019-02-26T10:06:11.266Z,14.42
2019-02-26T10:07:14.807Z,14.31
2019-02-26T10:08:22.218Z,14.44
2019-02-26T10:09:25.825Z,14.49
2019-02-26T10:10:33.781Z,14.49
2019-02-26T10:11:36.850Z,14.60
2019-02-26T10:12:42.362Z,14.67
2019-02-26T10:13:49.379Z,14.71
2019-02-26T10:14:54.663Z,14.75
2019-02-26T10:16:01.234Z,14.78
2019-02-26T10:17:04.402Z,14.86
2019-02-26T10:18:09.921Z,14.93
2019-02-26T10:19:17.113Z,14.87
2019-02-26T10:20:23.261Z,14.94
2019-02-26T10:21:26.464Z,15.03
2019-02-26T10:22:33.181Z,15.03
2019-02-26T10:23:37.487Z,15.03
2019-02-26T10:24:42.988Z,15.11
2019-02-26T10:25:53.180Z,15.12
2019-02-26T10:26:54.019Z,15.27
2019-02-26T10:28:03.126Z,15.12
2019-02-26T10:29:07.154Z,15.24
2019-02-26T10:30:13.365Z,15.28
2019-02-26T10:31:16.080Z,15.36
2019-02-26T10:32:21.590Z,15.41
2019-02-26T10:33:27.087Z,15.43
2019-02-26T10:34:32.606Z,15.48
2019-02-26T10:35:39.727Z,15.52
2019-02-26T10:36:46.584Z,15.52
2019-02-26T10:37:49.143Z,15.64
2019-02-26T10:38:57.197Z,15.72
2019-02-26T10:40:00.318Z,15.64
2019-02-26T10:41:05.685Z,15.72
2019-02-26T10:42:12.132Z,15.70
2019-02-26T10:43:16.717Z,15.78
2019-02-26T10:44:22.235Z,15.85
2019-02-26T10:45:27.731Z,15.82
2019-02-26T10:46:34.608Z,15.99
2019-02-26T10:47:38.757Z,15.94
2019-02-26T10:48:45.602Z,15.94
2019-02-26T10:49:51.390Z,15.96
2019-02-26T10:50:55.302Z,16.06
2019-02-26T10:52:00.813Z,16.15
2019-02-26T10:53:10.301Z,16.18
2019-02-26T10:54:15.177Z,16.11
2019-02-26T10:55:17.857Z,16.22
2019-02-26T10:56:22.862Z,16.33
2019-02-26T10:57:28.869Z,16.38
2019-02-26T10:58:33.897Z,16.34
2019-02-26T10:59:42.153Z,16.53
2019-02-26T11:00:44.915Z,16.53
2019-02-26T11:01:53.234Z,16.68
2019-02-26T11:02:55.942Z,16.77
2019-02-26T11:04:01.455Z,16.70
2019-02-26T11:05:08.646Z,16.81
2019-02-26T11:06:16.467Z,16.88
2019-02-26T11:07:18.000Z,16.81
2019-02-26T11:08:26.632Z,16.90
2019-02-26T11:09:31.431Z,16.90
2019-02-26T11:10:34.540Z,17.00
2019-02-26T11:11:42.212Z,16.99
2019-02-26T11:12:46.445Z,17.03
2019-02-26T11:13:53.698Z,17.14
2019-02-26T11:14:58.448Z,17.18
2019-02-26T11:16:03.064Z,17.28
2019-02-26T11:17:07.620Z,17.32
2019-02-26T11:18:15.015Z,17.50
2019-02-26T11:19:18.636Z,17.43
2019-02-26T11:20:25.244Z,17.47
2019-02-26T11:21:29.669Z,17.64
2019-02-26T11:22:35.178Z,17.67
2019-02-26T11:23:41.535Z,17.73
2019-02-26T11:24:48.363Z,17.76
2019-02-26T11:25:51.742Z,17.82
2019-02-26T11:26:57.250Z,17.91
2019-02-26T11:28:04.815Z,17.95
2019-02-26T11:29:08.272Z,18.03
2019-02-26T11:30:13.785Z,17.97
2019-02-26T11:31:20.500Z,18.00
2019-02-26T11:32:27.102Z,18.06
2019-02-26T11:33:30.589Z,18.19
2019-02-26T11:34:38.254Z,18.13
2019-02-26T11:35:43.620Z,18.15
2019-02-26T11:36:46.880Z,18.19
2019-02-26T11:37:54.796Z,18.25
2019-02-26T11:38:59.938Z,18.33
2019-02-26T11:40:05.379Z,18.31
2019-02-26T11:41:08.929Z,18.39
2019-02-26T11:42:16.472Z,18.46
2019-02-26T11:43:22.933Z,18.42
2019-02-26T11:44:27.637Z,18.49
2019-02-26T11:45:32.867Z,18.46
2019-02-26T11:46:36.503Z,18.52
2019-02-26T11:47:43.816Z,18.58
2019-02-26T11:48:48.393Z,18.61
2019-02-26T11:49:53.053Z,18.62
2019-02-26T11:51:00.832Z,18.72
2019-02-26T11:52:04.636Z,18.70
2019-02-26T11:53:10.078Z,18.65
2019-02-26T11:54:17.511Z,18.76
2019-02-26T11:55:20.620Z,18.83
2019-02-26T11:56:26.140Z,18.83
2019-02-26T11:57:34.929Z,18.91
2019-02-26T11:58:37.170Z,18.94
2019-02-26T11:59:42.905Z,19.01
2019-02-26T12:00:50.642Z,19.13
2019-02-26T12:01:54.210Z,19.13
2019-02-26T12:02:59.226Z,19.11
2019-02-26T12:04:06.075Z,19.25
2019-02-26T12:05:10.743Z,19.24
2019-02-26T12:06:15.767Z,19.29
2019-02-26T12:07:22.294Z,19.36
2019-02-26T12:08:26.794Z,19.43
2019-02-26T12:09:35.057Z,19.48
2019-02-26T12:10:39.969Z,19.48
2019-02-26T12:11:43.343Z,19.55
2019-02-26T12:12:51.348Z,19.60
2019-02-26T12:13:54.374Z,19.63
2019-02-26T12:15:02.012Z,19.69
2019-02-26T12:16:05.408Z,19.60
2019-02-26T12:17:10.918Z,19.79
2019-02-26T12:18:17.903Z,19.84
2019-02-26T12:19:23.119Z,19.83
2019-02-26T12:20:27.480Z,20.02
2019-02-26T12:21:34.581Z,19.97
2019-02-26T12:22:38.509Z,20.12
2019-02-26T12:23:46.427Z,20.21
2019-02-26T12:24:53.046Z,20.27
2019-02-26T12:25:56.426Z,20.33
2019-02-26T12:27:00.558Z,20.43
2019-02-26T12:28:08.153Z,20.59
2019-02-26T12:29:11.599Z,20.72
2019-02-26T12:30:18.123Z,20.95
2019-02-26T12:31:24.550Z,21.05
2019-02-26T12:32:29.611Z,21.24
2019-02-26T12:33:33.658Z,21.39
2019-02-26T12:34:41.230Z,21.74
2019-02-26T12:35:44.687Z,22.28
2019-02-26T12:36:51.161Z,22.96
2019-02-26T12:37:58.847Z,23.79
2019-02-26T12:39:02.433Z,24.83
2019-02-26T12:40:06.749Z,25.97
2019-02-26T12:41:15.596Z,26.69
2019-02-26T12:42:18.720Z,26.81
2019-02-26T12:43:23.315Z,27.69
2019-02-26T12:44:29.609Z,28.35
2019-02-26T12:45:37.870Z,29.06
2019-02-26T12:46:39.850Z,29.68
2019-02-26T12:47:48.156Z,30.14
2019-02-26T12:48:50.885Z,30.86
2019-02-26T12:49:58.565Z,31.40
2019-02-26T12:51:04.627Z,32.06
2019-02-26T12:52:07.459Z,32.58
2019-02-26T12:53:17.255Z,32.98
2019-02-26T12:54:18.482Z,33.29
2019-02-26T12:55:29.482Z,33.53
2019-02-26T12:56:29.986Z,33.94
2019-02-26T12:57:35.061Z,34.23
2019-02-26T12:58:41.097Z,34.60
2019-02-26T12:59:46.094Z,35.06
2019-02-26T13:00:51.627Z,34.80
2019-02-26T13:01:57.167Z,34.69
2019-02-26T13:03:05.681Z,34.63
2019-02-26T13:04:09.665Z,34.79
2019-02-26T13:05:16.855Z,34.09
2019-02-26T13:06:22.732Z,34.00
2019-02-26T13:07:24.760Z,33.70
2019-02-26T13:08:30.285Z,33.63
2019-02-26T13:09:39.083Z,33.48
2019-02-26T13:10:42.537Z,33.49
2019-02-26T13:12:00.514Z,33.76
2019-02-26T13:12:58.600Z,34.07
2019-02-26T13:13:57.951Z,35.13
2019-02-26T13:15:06.503Z,36.08
2019-02-26T13:16:08.954Z,36.91
2019-02-26T13:17:17.314Z,37.73
2019-02-26T13:18:20.016Z,38.39
2019-02-26T13:19:30.152Z,38.98
2019-02-26T13:20:31.063Z,39.54
2019-02-26T13:21:36.602Z,39.98
2019-02-26T13:22:45.815Z,40.34
2019-02-26T13:23:47.648Z,40.81
2019-02-26T13:24:53.175Z,41.18
2019-02-26T13:25:58.695Z,41.46
2019-02-26T13:27:04.222Z,41.91
2019-02-26T13:28:09.747Z,42.19
2019-02-26T13:29:15.278Z,42.54
2019-02-26T13:30:20.800Z,42.99
2019-02-26T13:31:26.388Z,43.18
2019-02-26T13:32:32.345Z,43.46
2019-02-26T13:33:41.148Z,43.76
2019-02-26T13:34:42.917Z,43.89
2019-02-26T13:35:52.340Z,44.04
2019-02-26T13:36:56.795Z,44.24
2019-02-26T13:37:59.508Z,44.29
2019-02-26T13:39:05.210Z,44.40
2019-02-26T13:40:10.556Z,44.48
2019-02-26T13:41:30.307Z,44.61
2019-02-26T13:42:21.622Z,44.62
2019-02-26T13:43:28.623Z,44.59
2019-02-26T13:44:32.674Z,44.77
2019-02-26T13:45:38.199Z,45.04
2019-02-26T13:46:43.726Z,45.19
2019-02-26T13:47:49.271Z,45.30
2019-02-26T13:48:54.798Z,45.42
2019-02-26T13:50:00.321Z,45.32
2019-02-26T13:51:05.846Z,45.50
2019-02-26T13:52:11.381Z,45.25
2019-02-26T13:53:16.907Z,45.28
2019-02-26T13:54:22.440Z,45.37
2019-02-26T13:55:27.970Z,45.52
2019-02-26T13:56:33.502Z,45.61
2019-02-26T13:57:39.026Z,45.76
2019-02-26T13:58:44.578Z,45.95
2019-02-26T13:59:50.085Z,46.05
2019-02-26T14:00:55.614Z,45.95
2019-02-26T14:02:01.153Z,45.97
2019-02-26T14:03:06.678Z,46.10
2019-02-26T14:04:12.205Z,45.72
2019-02-26T14:05:17.734Z,45.71
2019-02-26T14:06:23.266Z,45.87
2019-02-26T14:07:28.806Z,46.02
2019-02-26T14:08:34.325Z,45.95
2019-02-26T14:09:39.856Z,45.99
2019-02-26T14:10:45.489Z,46.07
2019-02-26T14:11:50.912Z,45.73
2019-02-26T14:12:56.450Z,45.34
2019-02-26T14:14:01.973Z,44.81
2019-02-26T14:15:07.503Z,44.38
2019-02-26T14:16:13.041Z,44.39
2019-02-26T14:17:18.564Z,44.62
2019-02-26T14:18:24.102Z,44.59
2019-02-26T14:19:29.622Z,44.94
2019-02-26T14:20:35.156Z,45.42